Terminal Aerodrome Forecast
Issued by NWS Atlanta, GA

Current Version | Previous Version | Text Only | Print | Product List | Glossary On
Versions: 1 2 3 4 5 6 7 8 9 10 11 12 13 14 15 16
416
FTUS42 KFFC 261358 AAA
TAFMCN
TAF AMD
KMCN 261358Z 2614/2712 09009KT P6SM SCT015
      TEMPO 2614/2616 BKN015
     FM261600 09009KT P6SM SCT035
     FM261800 11009KT P6SM SCT050 BKN120
     FM270200 09004KT P6SM SCT070 BKN250=

USA.gov is the U.S. government's official web portal to all federal, state and local government web resources and services.